sensor_id;sensor_type;location;lat;lon;timestamp;temperature;humidity
4813;DHT22;2420;51.202;8.698;2023-02-15T00:01:52;-0.40;1.00
4813;DHT22;2420;51.202;8.698;2023-02-15T00:04:20;-0.30;1.00
4813;DHT22;2420;51.202;8.698;2023-02-15T00:06:46;-0.60;1.00
4813;DHT22;2420;51.202;8.698;2023-02-15T00:09:12;-0.80;1.00
4813;DHT22;2420;51.202;8.698;2023-02-15T00:11:38;-0.50;1.00
4813;DHT22;2420;51.202;8.698;2023-02-15T00:14:23;-0.50;1.00
4813;DHT22;2420;51.202;8.698;2023-02-15T00:16:50;-0.90;1.00
4813;DHT22;2420;51.202;8.698;2023-02-15T00:19:18;-0.50;1.00
4813;DHT22;2420;51.202;8.698;2023-02-15T00:21:44;-0.70;1.00
4813;DHT22;2420;51.202;8.698;2023-02-15T00:24:12;-0.60;1.00
4813;DHT22;2420;51.202;8.698;2023-02-15T00:26:39;-0.70;1.00
4813;DHT22;2420;51.202;8.698;2023-02-15T00:29:05;-0.80;1.00
4813;DHT22;2420;51.202;8.698;2023-02-15T00:31:31;-0.70;1.00
4813;DHT22;2420;51.202;8.698;2023-02-15T00:34:04;-0.80;1.00
4813;DHT22;2420;51.202;8.698;2023-02-15T00:36:29;-0.60;1.00
4813;DHT22;2420;51.202;8.698;2023-02-15T00:38:55;-0.80;1.00
4813;DHT22;2420;51.202;8.698;2023-02-15T00:41:21;-0.90;1.00
4813;DHT22;2420;51.202;8.698;2023-02-15T00:43:47;-0.90;1.00
4813;DHT22;2420;51.202;8.698;2023-02-15T00:46:12;-1.00;1.00
4813;DHT22;2420;51.202;8.698;2023-02-15T00:48:38;-0.80;1.00
4813;DHT22;2420;51.202;8.698;2023-02-15T00:51:04;-0.80;1.00
4813;DHT22;2420;51.202;8.698;2023-02-15T00:53:30;-0.70;1.00
4813;DHT22;2420;51.202;8.698;2023-02-15T00:55:56;-0.70;1.00
4813;DHT22;2420;51.202;8.698;2023-02-15T00:58:23;-0.70;1.00
4813;DHT22;2420;51.202;8.698;2023-02-15T01:00:48;-0.80;1.00
4813;DHT22;2420;51.202;8.698;2023-02-15T01:03:16;-0.80;1.00
4813;DHT22;2420;51.202;8.698;2023-02-15T01:05:42;-0.80;1.00
4813;DHT22;2420;51.202;8.698;2023-02-15T01:08:08;-0.80;1.00
4813;DHT22;2420;51.202;8.698;2023-02-15T01:10:34;-1.00;1.00
4813;DHT22;2420;51.202;8.698;2023-02-15T01:13:00;-0.80;1.00
4813;DHT22;2420;51.202;8.698;2023-02-15T01:15:26;-0.80;1.00
4813;DHT22;2420;51.202;8.698;2023-02-15T01:17:52;-0.80;1.00
4813;DHT22;2420;51.202;8.698;2023-02-15T01:20:24;-0.90;1.00
4813;DHT22;2420;51.202;8.698;2023-02-15T01:22:50;-1.00;1.00
4813;DHT22;2420;51.202;8.698;2023-02-15T01:25:17;-0.80;1.00
4813;DHT22;2420;51.202;8.698;2023-02-15T01:27:44;-0.90;1.00
4813;DHT22;2420;51.202;8.698;2023-02-15T01:30:10;-0.60;1.00
4813;DHT22;2420;51.202;8.698;2023-02-15T01:32:36;-0.80;1.00
4813;DHT22;2420;51.202;8.698;2023-02-15T01:35:01;-0.90;1.00
4813;DHT22;2420;51.202;8.698;2023-02-15T01:37:30;-0.80;1.00
4813;DHT22;2420;51.202;8.698;2023-02-15T01:39:56;-0.90;1.00
4813;DHT22;2420;51.202;8.698;2023-02-15T01:42:23;-0.70;1.00
4813;DHT22;2420;51.202;8.698;2023-02-15T01:47:41;-0.60;1.00
4813;DHT22;2420;51.202;8.698;2023-02-15T01:55:43;-0.90;1.00
4813;DHT22;2420;51.202;8.698;2023-02-15T01:58:09;-0.70;1.00
4813;DHT22;2420;51.202;8.698;2023-02-15T02:00:35;-0.70;1.00
4813;DHT22;2420;51.202;8.698;2023-02-15T02:03:01;-1.00;1.00
4813;DHT22;2420;51.202;8.698;2023-02-15T02:05:29;-0.90;1.00
4813;DHT22;2420;51.202;8.698;2023-02-15T02:07:57;-1.00;1.00
4813;DHT22;2420;51.202;8.698;2023-02-15T02:10:24;-1.00;1.00
4813;DHT22;2420;51.202;8.698;2023-02-15T02:12:53;-1.00;1.00
4813;DHT22;2420;51.202;8.698;2023-02-15T02:15:26;-0.90;1.00
4813;DHT22;2420;51.202;8.698;2023-02-15T02:18:03;-0.80;1.00
4813;DHT22;2420;51.202;8.698;2023-02-15T02:20:48;-0.90;1.00
4813;DHT22;2420;51.202;8.698;2023-02-15T02:26:11;-1.00;1.00
4813;DHT22;2420;51.202;8.698;2023-02-15T02:33:54;-0.70;1.00
4813;DHT22;2420;51.202;8.698;2023-02-15T02:39:12;-0.70;1.00
4813;DHT22;2420;51.202;8.698;2023-02-15T02:44:18;-0.80;1.00
4813;DHT22;2420;51.202;8.698;2023-02-15T02:49:16;-1.00;1.00
4813;DHT22;2420;51.202;8.698;2023-02-15T02:51:41;-1.20;1.00
4813;DHT22;2420;51.202;8.698;2023-02-15T02:54:07;-1.00;1.00
4813;DHT22;2420;51.202;8.698;2023-02-15T02:56:40;-0.90;1.00
4813;DHT22;2420;51.202;8.698;2023-02-15T02:59:13;-0.80;1.00
4813;DHT22;2420;51.202;8.698;2023-02-15T03:01:49;-0.80;1.00
4813;DHT22;2420;51.202;8.698;2023-02-15T03:04:21;-0.80;1.00
4813;DHT22;2420;51.202;8.698;2023-02-15T03:06:58;-0.70;1.00
4813;DHT22;2420;51.202;8.698;2023-02-15T03:09:34;-0.90;1.00
4813;DHT22;2420;51.202;8.698;2023-02-15T03:12:13;-0.90;1.00
4813;DHT22;2420;51.202;8.698;2023-02-15T03:14:41;-0.90;1.00
4813;DHT22;2420;51.202;8.698;2023-02-15T03:17:11;-0.80;1.00
4813;DHT22;2420;51.202;8.698;2023-02-15T03:19:38;-0.70;1.00
4813;DHT22;2420;51.202;8.698;2023-02-15T03:22:08;-0.90;1.00
4813;DHT22;2420;51.202;8.698;2023-02-15T03:24:43;-0.90;1.00
4813;DHT22;2420;51.202;8.698;2023-02-15T03:27:14;-0.70;1.00
4813;DHT22;2420;51.202;8.698;2023-02-15T03:29:43;-1.00;1.00
4813;DHT22;2420;51.202;8.698;2023-02-15T03:32:11;-0.80;1.00
4813;DHT22;2420;51.202;8.698;2023-02-15T03:34:37;-1.00;1.00
4813;DHT22;2420;51.202;8.698;2023-02-15T03:37:19;-0.90;1.00
4813;DHT22;2420;51.202;8.698;2023-02-15T03:46:13;-1.00;1.00
4813;DHT22;2420;51.202;8.698;2023-02-15T03:48:53;-0.90;1.00
4813;DHT22;2420;51.202;8.698;2023-02-15T03:51:22;-0.90;1.00
4813;DHT22;2420;51.202;8.698;2023-02-15T03:54:10;-0.80;1.00
4813;DHT22;2420;51.202;8.698;2023-02-15T03:56:39;-0.90;1.00
4813;DHT22;2420;51.202;8.698;2023-02-15T03:59:05;-0.80;1.00
4813;DHT22;2420;51.202;8.698;2023-02-15T04:02:19;-0.70;1.00
4813;DHT22;2420;51.202;8.698;2023-02-15T04:04:47;-1.00;1.00
4813;DHT22;2420;51.202;8.698;2023-02-15T04:07:13;-1.10;1.00
4813;DHT22;2420;51.202;8.698;2023-02-15T04:09:39;-1.00;1.00
4813;DHT22;2420;51.202;8.698;2023-02-15T04:12:23;-0.80;1.00
4813;DHT22;2420;51.202;8.698;2023-02-15T04:14:49;-1.00;1.00
4813;DHT22;2420;51.202;8.698;2023-02-15T04:17:33;-0.90;1.00
4813;DHT22;2420;51.202;8.698;2023-02-15T04:19:58;-1.00;1.00
4813;DHT22;2420;51.202;8.698;2023-02-15T04:22:43;-0.90;1.00
4813;DHT22;2420;51.202;8.698;2023-02-15T04:25:28;-0.80;1.00
4813;DHT22;2420;51.202;8.698;2023-02-15T04:27:54;-0.60;1.00
4813;DHT22;2420;51.202;8.698;2023-02-15T04:30:24;-0.90;1.00
4813;DHT22;2420;51.202;8.698;2023-02-15T04:32:51;-0.70;1.00
4813;DHT22;2420;51.202;8.698;2023-02-15T04:35:16;-0.90;1.00
4813;DHT22;2420;51.202;8.698;2023-02-15T04:37:43;-0.70;1.00
4813;DHT22;2420;51.202;8.698;2023-02-15T04:40:12;-0.80;1.00
4813;DHT22;2420;51.202;8.698;2023-02-15T04:42:38;-0.80;1.00
4813;DHT22;2420;51.202;8.698;2023-02-15T04:45:03;-0.70;1.00
4813;DHT22;2420;51.202;8.698;2023-02-15T04:47:29;-1.00;1.00
4813;DHT22;2420;51.202;8.698;2023-02-15T04:49:55;-0.80;1.00
4813;DHT22;2420;51.202;8.698;2023-02-15T04:52:21;-0.90;1.00
4813;DHT22;2420;51.202;8.698;2023-02-15T04:54:47;-1.10;1.00
4813;DHT22;2420;51.202;8.698;2023-02-15T04:57:13;-0.90;1.00
4813;DHT22;2420;51.202;8.698;2023-02-15T04:59:38;-0.70;1.00
4813;DHT22;2420;51.202;8.698;2023-02-15T05:02:04;-1.00;1.00
4813;DHT22;2420;51.202;8.698;2023-02-15T05:04:30;-1.00;1.00
4813;DHT22;2420;51.202;8.698;2023-02-15T05:06:55;-0.90;1.00
4813;DHT22;2420;51.202;8.698;2023-02-15T05:09:21;-1.00;1.00
4813;DHT22;2420;51.202;8.698;2023-02-15T05:11:46;-0.90;1.00
4813;DHT22;2420;51.202;8.698;2023-02-15T05:14:12;-0.90;1.00
4813;DHT22;2420;51.202;8.698;2023-02-15T05:16:38;-1.10;1.00
4813;DHT22;2420;51.202;8.698;2023-02-15T05:19:03;-1.00;1.00
4813;DHT22;2420;51.202;8.698;2023-02-15T05:21:29;-0.90;1.00
4813;DHT22;2420;51.202;8.698;2023-02-15T05:23:54;-1.10;1.00
4813;DHT22;2420;51.202;8.698;2023-02-15T05:26:22;-1.10;1.00
4813;DHT22;2420;51.202;8.698;2023-02-15T05:29:08;-0.90;1.00
4813;DHT22;2420;51.202;8.698;2023-02-15T05:31:33;-1.10;1.00
4813;DHT22;2420;51.202;8.698;2023-02-15T05:33:59;-0.90;1.00
4813;DHT22;2420;51.202;8.698;2023-02-15T05:36:25;-0.90;1.00
4813;DHT22;2420;51.202;8.698;2023-02-15T05:38:51;-0.90;1.00
4813;DHT22;2420;51.202;8.698;2023-02-15T05:41:17;-0.90;1.00
4813;DHT22;2420;51.202;8.698;2023-02-15T05:43:42;-0.80;1.00
4813;DHT22;2420;51.202;8.698;2023-02-15T05:46:08;-1.00;1.00
4813;DHT22;2420;51.202;8.698;2023-02-15T05:48:34;-0.80;1.00
4813;DHT22;2420;51.202;8.698;2023-02-15T05:51:11;-1.10;1.00
4813;DHT22;2420;51.202;8.698;2023-02-15T05:53:41;-0.80;1.00
4813;DHT22;2420;51.202;8.698;2023-02-15T05:56:08;-1.10;1.00
4813;DHT22;2420;51.202;8.698;2023-02-15T05:58:36;-0.90;1.00
4813;DHT22;2420;51.202;8.698;2023-02-15T06:01:09;-1.00;1.00
4813;DHT22;2420;51.202;8.698;2023-02-15T06:03:35;-1.00;1.00
4813;DHT22;2420;51.202;8.698;2023-02-15T06:06:00;-0.90;1.00
4813;DHT22;2420;51.202;8.698;2023-02-15T06:08:27;-1.10;1.00
4813;DHT22;2420;51.202;8.698;2023-02-15T06:10:52;-1.00;1.00
4813;DHT22;2420;51.202;8.698;2023-02-15T06:13:18;-0.70;1.00
4813;DHT22;2420;51.202;8.698;2023-02-15T06:15:43;-1.00;1.00
4813;DHT22;2420;51.202;8.698;2023-02-15T06:18:09;-1.00;1.00
4813;DHT22;2420;51.202;8.698;2023-02-15T06:20:34;-0.80;1.00
4813;DHT22;2420;51.202;8.698;2023-02-15T06:23:00;-0.90;1.00
4813;DHT22;2420;51.202;8.698;2023-02-15T06:25:25;-1.10;1.00
4813;DHT22;2420;51.202;8.698;2023-02-15T06:27:51;-1.00;1.00
4813;DHT22;2420;51.202;8.698;2023-02-15T06:30:17;-1.10;1.00
4813;DHT22;2420;51.202;8.698;2023-02-15T06:32:42;-1.00;1.00
4813;DHT22;2420;51.202;8.698;2023-02-15T06:35:08;-0.90;1.00
4813;DHT22;2420;51.202;8.698;2023-02-15T06:37:33;-1.10;1.00
4813;DHT22;2420;51.202;8.698;2023-02-15T06:39:59;-1.00;1.00
4813;DHT22;2420;51.202;8.698;2023-02-15T06:42:24;-0.70;1.00
4813;DHT22;2420;51.202;8.698;2023-02-15T06:44:50;-0.90;1.00
4813;DHT22;2420;51.202;8.698;2023-02-15T06:47:16;-0.80;1.00
4813;DHT22;2420;51.202;8.698;2023-02-15T06:49:42;-0.80;1.00
4813;DHT22;2420;51.202;8.698;2023-02-15T06:52:07;-0.90;1.00
4813;DHT22;2420;51.202;8.698;2023-02-15T06:54:33;-1.00;1.00
4813;DHT22;2420;51.202;8.698;2023-02-15T06:56:58;-0.80;1.00
4813;DHT22;2420;51.202;8.698;2023-02-15T06:59:24;-0.70;1.00
4813;DHT22;2420;51.202;8.698;2023-02-15T07:01:49;-0.80;1.00
4813;DHT22;2420;51.202;8.698;2023-02-15T07:04:15;-0.90;1.00
4813;DHT22;2420;51.202;8.698;2023-02-15T07:06:41;-1.10;1.00
4813;DHT22;2420;51.202;8.698;2023-02-15T07:09:06;-0.90;1.00
4813;DHT22;2420;51.202;8.698;2023-02-15T07:11:32;-0.70;1.00
4813;DHT22;2420;51.202;8.698;2023-02-15T07:14:16;-1.00;1.00
4813;DHT22;2420;51.202;8.698;2023-02-15T07:16:41;-0.90;1.00
4813;DHT22;2420;51.202;8.698;2023-02-15T07:19:07;-0.60;1.00
4813;DHT22;2420;51.202;8.698;2023-02-15T07:21:34;-0.60;1.00
4813;DHT22;2420;51.202;8.698;2023-02-15T07:24:00;-0.70;1.00
4813;DHT22;2420;51.202;8.698;2023-02-15T07:26:25;-0.80;1.00
4813;DHT22;2420;51.202;8.698;2023-02-15T07:28:54;-0.70;1.00
4813;DHT22;2420;51.202;8.698;2023-02-15T07:31:20;-0.70;1.00
4813;DHT22;2420;51.202;8.698;2023-02-15T07:33:45;-1.00;1.00
4813;DHT22;2420;51.202;8.698;2023-02-15T07:36:12;-0.90;1.00
4813;DHT22;2420;51.202;8.698;2023-02-15T07:38:39;-0.90;1.00
4813;DHT22;2420;51.202;8.698;2023-02-15T07:41:08;-0.70;1.00
4813;DHT22;2420;51.202;8.698;2023-02-15T07:43:39;-0.80;1.00
4813;DHT22;2420;51.202;8.698;2023-02-15T07:46:07;-0.70;1.00
4813;DHT22;2420;51.202;8.698;2023-02-15T07:48:33;-0.70;1.00
4813;DHT22;2420;51.202;8.698;2023-02-15T07:51:04;-0.70;1.00
4813;DHT22;2420;51.202;8.698;2023-02-15T07:53:30;-0.50;1.00
4813;DHT22;2420;51.202;8.698;2023-02-15T07:56:06;-0.90;1.00
4813;DHT22;2420;51.202;8.698;2023-02-15T07:58:35;-0.90;1.00
4813;DHT22;2420;51.202;8.698;2023-02-15T08:01:17;-0.60;1.00
4813;DHT22;2420;51.202;8.698;2023-02-15T08:03:43;-0.60;1.00
4813;DHT22;2420;51.202;8.698;2023-02-15T08:06:08;-0.50;1.00
4813;DHT22;2420;51.202;8.698;2023-02-15T08:08:35;-0.40;1.00
4813;DHT22;2420;51.202;8.698;2023-02-15T08:13:53;-0.60;1.00
4813;DHT22;2420;51.202;8.698;2023-02-15T08:16:29;-0.40;1.00
4813;DHT22;2420;51.202;8.698;2023-02-15T08:18:56;-0.70;1.00
4813;DHT22;2420;51.202;8.698;2023-02-15T08:21:23;-0.50;1.00
4813;DHT22;2420;51.202;8.698;2023-02-15T08:23:49;-0.60;1.00
4813;DHT22;2420;51.202;8.698;2023-02-15T08:26:16;-0.50;1.00
4813;DHT22;2420;51.202;8.698;2023-02-15T08:28:42;-0.50;1.00
4813;DHT22;2420;51.202;8.698;2023-02-15T08:31:12;-0.20;1.00
4813;DHT22;2420;51.202;8.698;2023-02-15T08:33:40;-0.30;1.00
4813;DHT22;2420;51.202;8.698;2023-02-15T08:36:11;-0.30;1.00
4813;DHT22;2420;51.202;8.698;2023-02-15T08:38:37;-0.30;1.00
4813;DHT22;2420;51.202;8.698;2023-02-15T08:41:33;-0.10;1.00
4813;DHT22;2420;51.202;8.698;2023-02-15T08:44:03;0.00;1.00
4813;DHT22;2420;51.202;8.698;2023-02-15T08:46:31;0.00;1.00
4813;DHT22;2420;51.202;8.698;2023-02-15T08:48:57;0.00;1.00
4813;DHT22;2420;51.202;8.698;2023-02-15T08:51:25;0.00;1.00
4813;DHT22;2420;51.202;8.698;2023-02-15T08:53:54;-0.10;1.00
4813;DHT22;2420;51.202;8.698;2023-02-15T08:56:25;-0.10;1.00
4813;DHT22;2420;51.202;8.698;2023-02-15T08:58:52;-0.10;1.00
4813;DHT22;2420;51.202;8.698;2023-02-15T09:01:20;0.10;1.00
4813;DHT22;2420;51.202;8.698;2023-02-15T09:03:51;0.10;1.00
4813;DHT22;2420;51.202;8.698;2023-02-15T09:06:21;0.00;1.00
4813;DHT22;2420;51.202;8.698;2023-02-15T09:08:47;0.10;1.00
4813;DHT22;2420;51.202;8.698;2023-02-15T09:11:17;0.20;1.00
4813;DHT22;2420;51.202;8.698;2023-02-15T09:14:09;0.20;1.00
4813;DHT22;2420;51.202;8.698;2023-02-15T09:16:37;0.10;1.00
4813;DHT22;2420;51.202;8.698;2023-02-15T09:19:03;0.20;1.00
4813;DHT22;2420;51.202;8.698;2023-02-15T09:21:36;0.40;1.00
4813;DHT22;2420;51.202;8.698;2023-02-15T09:24:07;0.10;1.00
4813;DHT22;2420;51.202;8.698;2023-02-15T09:26:35;0.20;1.00
4813;DHT22;2420;51.202;8.698;2023-02-15T09:29:02;0.30;1.00
4813;DHT22;2420;51.202;8.698;2023-02-15T09:31:37;0.30;1.00
4813;DHT22;2420;51.202;8.698;2023-02-15T09:34:03;0.50;1.00
4813;DHT22;2420;51.202;8.698;2023-02-15T09:36:39;0.50;1.00
4813;DHT22;2420;51.202;8.698;2023-02-15T09:44:59;0.50;1.00
4813;DHT22;2420;51.202;8.698;2023-02-15T09:56:10;0.80;1.00
4813;DHT22;2420;51.202;8.698;2023-02-15T10:01:40;0.50;1.00
4813;DHT22;2420;51.202;8.698;2023-02-15T10:07:00;0.80;1.00
4813;DHT22;2420;51.202;8.698;2023-02-15T10:25:50;0.80;1.00
4813;DHT22;2420;51.202;8.698;2023-02-15T10:28:23;1.10;1.00
4813;DHT22;2420;51.202;8.698;2023-02-15T10:30:59;1.20;1.00
4813;DHT22;2420;51.202;8.698;2023-02-15T10:33:41;1.10;1.00
4813;DHT22;2420;51.202;8.698;2023-02-15T10:39:25;1.30;1.00
4813;DHT22;2420;51.202;8.698;2023-02-15T10:42:16;1.50;1.00
4813;DHT22;2420;51.202;8.698;2023-02-15T10:45:17;1.30;1.00
4813;DHT22;2420;51.202;8.698;2023-02-15T10:50:53;1.40;1.00
4813;DHT22;2420;51.202;8.698;2023-02-15T10:54:01;1.50;1.00
4813;DHT22;2420;51.202;8.698;2023-02-15T10:56:38;1.50;1.00
4813;DHT22;2420;51.202;8.698;2023-02-15T11:04:48;1.50;1.00
4813;DHT22;2420;51.202;8.698;2023-02-15T11:07:37;1.60;1.00
4813;DHT22;2420;51.202;8.698;2023-02-15T11:10:56;1.80;1.00
4813;DHT22;2420;51.202;8.698;2023-02-15T11:13:17;1.90;1.00
4813;DHT22;2420;51.202;8.698;2023-02-15T11:15:56;2.00;1.00
4813;DHT22;2420;51.202;8.698;2023-02-15T11:18:42;2.00;1.00
4813;DHT22;2420;51.202;8.698;2023-02-15T11:21:10;2.00;1.00
4813;DHT22;2420;51.202;8.698;2023-02-15T11:23:42;2.00;1.00
4813;DHT22;2420;51.202;8.698;2023-02-15T11:26:34;2.10;1.00
4813;DHT22;2420;51.202;8.698;2023-02-15T11:29:08;2.40;1.00
4813;DHT22;2420;51.202;8.698;2023-02-15T11:31:46;2.40;1.00
4813;DHT22;2420;51.202;8.698;2023-02-15T11:34:29;2.50;1.00
4813;DHT22;2420;51.202;8.698;2023-02-15T11:37:01;2.40;1.00
4813;DHT22;2420;51.202;8.698;2023-02-15T11:39:30;2.30;1.00
4813;DHT22;2420;51.202;8.698;2023-02-15T11:42:03;2.60;1.00
4813;DHT22;2420;51.202;8.698;2023-02-15T11:44:42;2.90;1.00
4813;DHT22;2420;51.202;8.698;2023-02-15T11:47:11;2.80;1.00
4813;DHT22;2420;51.202;8.698;2023-02-15T11:49:37;3.00;1.00
4813;DHT22;2420;51.202;8.698;2023-02-15T11:52:15;3.00;1.00
4813;DHT22;2420;51.202;8.698;2023-02-15T11:54:51;3.20;1.00
4813;DHT22;2420;51.202;8.698;2023-02-15T11:57:36;3.00;1.00
4813;DHT22;2420;51.202;8.698;2023-02-15T12:00:12;3.00;1.00
4813;DHT22;2420;51.202;8.698;2023-02-15T12:02:44;3.00;1.00
4813;DHT22;2420;51.202;8.698;2023-02-15T12:05:15;3.30;1.00
4813;DHT22;2420;51.202;8.698;2023-02-15T12:07:50;3.10;1.00
4813;DHT22;2420;51.202;8.698;2023-02-15T12:10:22;3.20;1.00
4813;DHT22;2420;51.202;8.698;2023-02-15T12:13:11;3.20;1.00
4813;DHT22;2420;51.202;8.698;2023-02-15T12:15:38;3.40;1.00
4813;DHT22;2420;51.202;8.698;2023-02-15T12:18:05;3.40;1.00
4813;DHT22;2420;51.202;8.698;2023-02-15T12:20:41;3.30;1.00
4813;DHT22;2420;51.202;8.698;2023-02-15T12:23:13;3.50;1.00
4813;DHT22;2420;51.202;8.698;2023-02-15T12:25:43;3.80;1.00
4813;DHT22;2420;51.202;8.698;2023-02-15T12:28:38;3.50;1.00
4813;DHT22;2420;51.202;8.698;2023-02-15T12:33:52;3.70;1.00
4813;DHT22;2420;51.202;8.698;2023-02-15T12:36:29;3.70;1.00
4813;DHT22;2420;51.202;8.698;2023-02-15T12:41:41;4.00;1.00
4813;DHT22;2420;51.202;8.698;2023-02-15T12:44:29;4.00;1.00
4813;DHT22;2420;51.202;8.698;2023-02-15T12:46:56;4.30;1.00
4813;DHT22;2420;51.202;8.698;2023-02-15T12:49:22;4.10;1.00
4813;DHT22;2420;51.202;8.698;2023-02-15T12:51:54;4.10;1.00
4813;DHT22;2420;51.202;8.698;2023-02-15T12:54:29;4.00;1.00
4813;DHT22;2420;51.202;8.698;2023-02-15T12:56:56;4.30;1.00
4813;DHT22;2420;51.202;8.698;2023-02-15T12:59:23;4.20;1.00
4813;DHT22;2420;51.202;8.698;2023-02-15T13:01:49;4.30;1.00
4813;DHT22;2420;51.202;8.698;2023-02-15T13:04:26;4.20;1.00
4813;DHT22;2420;51.202;8.698;2023-02-15T13:06:54;4.40;1.00
4813;DHT22;2420;51.202;8.698;2023-02-15T13:09:35;4.60;1.00
4813;DHT22;2420;51.202;8.698;2023-02-15T13:12:20;4.40;1.00
4813;DHT22;2420;51.202;8.698;2023-02-15T13:14:48;4.60;1.00
4813;DHT22;2420;51.202;8.698;2023-02-15T13:17:17;4.50;1.00
4813;DHT22;2420;51.202;8.698;2023-02-15T13:19:48;4.50;1.00
4813;DHT22;2420;51.202;8.698;2023-02-15T13:22:21;4.50;1.00
4813;DHT22;2420;51.202;8.698;2023-02-15T13:24:53;4.50;1.00
4813;DHT22;2420;51.202;8.698;2023-02-15T13:27:23;4.30;1.00
4813;DHT22;2420;51.202;8.698;2023-02-15T13:29:52;4.40;1.00
4813;DHT22;2420;51.202;8.698;2023-02-15T13:32:34;4.40;1.00
4813;DHT22;2420;51.202;8.698;2023-02-15T13:35:03;4.60;1.00
4813;DHT22;2420;51.202;8.698;2023-02-15T13:43:14;4.60;1.00
4813;DHT22;2420;51.202;8.698;2023-02-15T13:51:25;4.50;1.00
4813;DHT22;2420;51.202;8.698;2023-02-15T14:11:26;4.70;1.00
4813;DHT22;2420;51.202;8.698;2023-02-15T14:17:18;4.50;1.00
4813;DHT22;2420;51.202;8.698;2023-02-15T14:19:59;4.40;1.00
4813;DHT22;2420;51.202;8.698;2023-02-15T14:22:40;4.40;1.00
4813;DHT22;2420;51.202;8.698;2023-02-15T14:27:56;4.10;1.00
4813;DHT22;2420;51.202;8.698;2023-02-15T14:30:30;4.20;1.00
4813;DHT22;2420;51.202;8.698;2023-02-15T14:35:34;4.10;1.00
4813;DHT22;2420;51.202;8.698;2023-02-15T14:38:03;3.90;1.00
4813;DHT22;2420;51.202;8.698;2023-02-15T14:40:37;3.90;1.00
4813;DHT22;2420;51.202;8.698;2023-02-15T14:46:31;3.80;1.00
4813;DHT22;2420;51.202;8.698;2023-02-15T14:59:37;3.50;1.00
4813;DHT22;2420;51.202;8.698;2023-02-15T15:02:13;3.50;1.00
4813;DHT22;2420;51.202;8.698;2023-02-15T15:04:45;3.30;1.00
4813;DHT22;2420;51.202;8.698;2023-02-15T15:07:48;3.50;1.00
4813;DHT22;2420;51.202;8.698;2023-02-15T15:15:34;3.10;1.00
4813;DHT22;2420;51.202;8.698;2023-02-15T15:18:05;3.20;1.00
4813;DHT22;2420;51.202;8.698;2023-02-15T15:20:48;3.10;1.00
4813;DHT22;2420;51.202;8.698;2023-02-15T15:25:43;3.40;1.00
4813;DHT22;2420;51.202;8.698;2023-02-15T15:31:43;2.80;1.00
4813;DHT22;2420;51.202;8.698;2023-02-15T15:34:41;3.20;1.00
4813;DHT22;2420;51.202;8.698;2023-02-15T15:37:38;2.80;1.00
4813;DHT22;2420;51.202;8.698;2023-02-15T15:48:37;2.60;1.00
4813;DHT22;2420;51.202;8.698;2023-02-15T15:51:11;3.00;1.00
4813;DHT22;2420;51.202;8.698;2023-02-15T15:53:46;2.90;1.00
4813;DHT22;2420;51.202;8.698;2023-02-15T15:56:25;2.70;1.00
4813;DHT22;2420;51.202;8.698;2023-02-15T15:59:05;2.50;1.00
4813;DHT22;2420;51.202;8.698;2023-02-15T16:01:39;2.50;1.00
4813;DHT22;2420;51.202;8.698;2023-02-15T16:04:12;2.50;1.00
4813;DHT22;2420;51.202;8.698;2023-02-15T16:06:39;2.70;1.00
4813;DHT22;2420;51.202;8.698;2023-02-15T16:09:10;2.80;1.00
4813;DHT22;2420;51.202;8.698;2023-02-15T16:11:36;2.50;1.00
4813;DHT22;2420;51.202;8.698;2023-02-15T16:14:13;2.50;1.00
4813;DHT22;2420;51.202;8.698;2023-02-15T16:16:39;2.40;1.00
4813;DHT22;2420;51.202;8.698;2023-02-15T16:19:05;2.50;1.00
4813;DHT22;2420;51.202;8.698;2023-02-15T16:21:34;2.50;1.00
4813;DHT22;2420;51.202;8.698;2023-02-15T16:29:56;2.40;1.00
4813;DHT22;2420;51.202;8.698;2023-02-15T16:32:26;2.30;1.00
4813;DHT22;2420;51.202;8.698;2023-02-15T16:34:57;2.50;1.00
4813;DHT22;2420;51.202;8.698;2023-02-15T16:37:27;2.30;1.00
4813;DHT22;2420;51.202;8.698;2023-02-15T16:39:54;2.30;1.00
4813;DHT22;2420;51.202;8.698;2023-02-15T16:42:20;2.20;1.00
4813;DHT22;2420;51.202;8.698;2023-02-15T16:45:08;2.20;1.00
4813;DHT22;2420;51.202;8.698;2023-02-15T16:47:40;2.20;1.00
4813;DHT22;2420;51.202;8.698;2023-02-15T16:50:17;2.10;1.00
4813;DHT22;2420;51.202;8.698;2023-02-15T16:52:44;2.00;1.00
4813;DHT22;2420;51.202;8.698;2023-02-15T16:55:21;2.00;1.00
4813;DHT22;2420;51.202;8.698;2023-02-15T16:57:47;2.00;1.00
4813;DHT22;2420;51.202;8.698;2023-02-15T17:00:22;1.80;1.00
4813;DHT22;2420;51.202;8.698;2023-02-15T17:03:04;1.90;1.00
4813;DHT22;2420;51.202;8.698;2023-02-15T17:05:47;2.10;1.00
4813;DHT22;2420;51.202;8.698;2023-02-15T17:08:28;2.00;1.00
4813;DHT22;2420;51.202;8.698;2023-02-15T17:11:16;1.90;1.00
4813;DHT22;2420;51.202;8.698;2023-02-15T17:16:35;1.80;1.00
4813;DHT22;2420;51.202;8.698;2023-02-15T17:19:08;1.90;1.00
4813;DHT22;2420;51.202;8.698;2023-02-15T17:21:40;2.00;1.00
4813;DHT22;2420;51.202;8.698;2023-02-15T17:24:30;1.70;1.00
4813;DHT22;2420;51.202;8.698;2023-02-15T17:26:59;2.10;1.00
4813;DHT22;2420;51.202;8.698;2023-02-15T17:29:43;1.90;1.00
4813;DHT22;2420;51.202;8.698;2023-02-15T17:32:29;1.90;1.00
4813;DHT22;2420;51.202;8.698;2023-02-15T17:39:52;1.90;1.00
4813;DHT22;2420;51.202;8.698;2023-02-15T17:42:17;1.70;1.00
4813;DHT22;2420;51.202;8.698;2023-02-15T17:44:43;2.00;1.00
4813;DHT22;2420;51.202;8.698;2023-02-15T17:47:20;1.80;1.00
4813;DHT22;2420;51.202;8.698;2023-02-15T17:49:48;1.90;1.00
4813;DHT22;2420;51.202;8.698;2023-02-15T17:52:15;1.70;1.00
4813;DHT22;2420;51.202;8.698;2023-02-15T17:54:42;1.70;1.00
4813;DHT22;2420;51.202;8.698;2023-02-15T17:57:27;1.80;1.00
4813;DHT22;2420;51.202;8.698;2023-02-15T17:59:53;1.80;1.00
4813;DHT22;2420;51.202;8.698;2023-02-15T18:02:37;1.80;1.00
4813;DHT22;2420;51.202;8.698;2023-02-15T18:05:21;2.00;1.00
4813;DHT22;2420;51.202;8.698;2023-02-15T18:08:14;2.00;1.00
4813;DHT22;2420;51.202;8.698;2023-02-15T18:10:59;1.70;1.00
4813;DHT22;2420;51.202;8.698;2023-02-15T18:13:43;1.60;1.00
4813;DHT22;2420;51.202;8.698;2023-02-15T18:16:22;1.60;1.00
4813;DHT22;2420;51.202;8.698;2023-02-15T18:18:48;1.60;1.00
4813;DHT22;2420;51.202;8.698;2023-02-15T18:21:13;1.60;1.00
4813;DHT22;2420;51.202;8.698;2023-02-15T18:23:39;1.70;1.00
4813;DHT22;2420;51.202;8.698;2023-02-15T18:26:08;1.70;1.00
4813;DHT22;2420;51.202;8.698;2023-02-15T18:28:34;1.80;1.00
4813;DHT22;2420;51.202;8.698;2023-02-15T18:31:00;1.60;1.00
4813;DHT22;2420;51.202;8.698;2023-02-15T18:33:35;1.70;1.00
4813;DHT22;2420;51.202;8.698;2023-02-15T18:36:02;1.40;1.00
4813;DHT22;2420;51.202;8.698;2023-02-15T18:38:29;1.70;1.00
4813;DHT22;2420;51.202;8.698;2023-02-15T18:40:54;1.50;1.00
4813;DHT22;2420;51.202;8.698;2023-02-15T18:43:20;1.80;1.00
4813;DHT22;2420;51.202;8.698;2023-02-15T18:45:45;1.50;1.00
4813;DHT22;2420;51.202;8.698;2023-02-15T18:48:11;1.80;1.00
4813;DHT22;2420;51.202;8.698;2023-02-15T18:50:37;1.50;1.00
4813;DHT22;2420;51.202;8.698;2023-02-15T18:53:05;1.80;1.00
4813;DHT22;2420;51.202;8.698;2023-02-15T18:55:32;1.80;1.00
4813;DHT22;2420;51.202;8.698;2023-02-15T18:57:59;1.70;1.00
4813;DHT22;2420;51.202;8.698;2023-02-15T19:00:27;1.70;1.00
4813;DHT22;2420;51.202;8.698;2023-02-15T19:02:55;1.60;1.00
4813;DHT22;2420;51.202;8.698;2023-02-15T19:05:21;1.70;1.00
4813;DHT22;2420;51.202;8.698;2023-02-15T19:07:47;1.60;1.00
4813;DHT22;2420;51.202;8.698;2023-02-15T19:10:23;1.80;1.00
4813;DHT22;2420;51.202;8.698;2023-02-15T19:12:49;1.60;1.00
4813;DHT22;2420;51.202;8.698;2023-02-15T19:15:18;1.50;1.00
4813;DHT22;2420;51.202;8.698;2023-02-15T19:17:44;1.40;1.00
4813;DHT22;2420;51.202;8.698;2023-02-15T19:20:24;1.40;1.00
4813;DHT22;2420;51.202;8.698;2023-02-15T19:22:51;1.50;1.00
4813;DHT22;2420;51.202;8.698;2023-02-15T19:25:21;1.30;1.00
4813;DHT22;2420;51.202;8.698;2023-02-15T19:27:48;1.50;1.00
4813;DHT22;2420;51.202;8.698;2023-02-15T19:30:16;1.40;1.00
4813;DHT22;2420;51.202;8.698;2023-02-15T19:32:43;1.40;1.00
4813;DHT22;2420;51.202;8.698;2023-02-15T19:35:17;1.30;1.00
4813;DHT22;2420;51.202;8.698;2023-02-15T19:37:46;1.20;1.00
4813;DHT22;2420;51.202;8.698;2023-02-15T19:40:22;1.40;1.00
4813;DHT22;2420;51.202;8.698;2023-02-15T19:42:48;1.50;1.00
4813;DHT22;2420;51.202;8.698;2023-02-15T19:45:17;1.50;1.00